Weather History for KY51 - March, 2014

Change the Weather History Date:

Friday, March 14, 2014

  Actual Average (KLSE) Record (KLSE)
Temperature  
Mean Temperature 37 °F 34 °F  
Max Temperature 42 °F 43 °F 75 °F (2012)
Min Temperature 31 °F 24 °F -10 °F (1975)
Degree Days  
Heating Degree Days 28 31  
Month to date heating degree days 480  
Since 1 July heating degree days 5989  
Cooling Degree Days 0 0  
Month to date cooling degree days 0  
Year to date cooling degree days 0  
Moisture  
Dew Point 31 °F    
Average Humidity 74    
Maximum Humidity 80    
Minimum Humidity 62    
Precipitation  
Precipitation 0.00 in 0.06 in 1.26 in (1913)
Month to date precipitation 0.80  
Year to date precipitation 2.97  
Snow  
Snow 0.00 in 0.20 in 7.00 in (1918)
Month to date snowfall 4.0  
Since 1 July snowfall 38.5  
Snow Depth -    
Sea Level Pressure  
Sea Level Pressure 29.63 in    
Wind  
Wind Speed 13 mph (West)    
Max Wind Speed 25 mph    
Max Gust Speed 32 mph    
Visibility 10 miles    
Events      
T = Trace of Precipitation, MM = Missing Value Source: NWS Daily Summary

Daily Weather History Graph

Daily Weather History Graph

Search for Another Location

Airport or City:

Trip Planner

Search our weather history database for the weather conditions in past years. The results will help you decide how hot, cold, wet, or windy it might be!

Date:

Astronomy

Mar. 14, 2014 Rise Set
Actual Time 7:17 AM CDT 7:08 PM CDT
Civil Twilight 6:49 AM CDT 7:37 PM CDT
Nautical Twilight 6:15 AM CDT 8:10 PM CDT
Astronomical Twilight 5:42 AM CDT 8:44 PM CDT
Moon 5:29 PM CDT (3/14) 6:00 AM CDT (3/14)
Length of Visible Light 12h 48m
Length of Day
11h 51m
Waxing Gibbous, 96% of the Moon is Illuminated
Mar 14
Waxing Gibbous
Mar 16
Full
Mar 23
Last Quarter
Mar 30
New
Apr 7
First Quarter

Hourly Weather History & Observations

Time (CDT) Temp. Windchill Dew Point Humidity Pressure Visibility Wind Dir Wind Speed Gust Speed Precip Events Conditions
12:15 AM 40.1 °F 33.2 °F 33.8 °F 78% 29.62 in 10.0 mi South 11.5 mph - N/A   Clear
12:35 AM 40.1 °F 33.6 °F 33.8 °F 78% 29.61 in 10.0 mi South 10.4 mph - N/A   Clear
12:55 AM 40.6 °F 33.8 °F 33.3 °F 75% 29.59 in 10.0 mi South 11.5 mph - N/A   Clear
1:15 AM 40.6 °F 33.8 °F 32.9 °F 74% 29.58 in 10.0 mi South 11.5 mph - N/A   Clear
1:35 AM 41.0 °F 34.3 °F 32.5 °F 72% 29.57 in 10.0 mi South 11.5 mph - N/A   Clear
1:55 AM 41.4 °F 34.3 °F 32.2 °F 70% 29.56 in 10.0 mi South 12.7 mph - N/A   Clear
2:15 AM 42.4 °F 34.4 °F 32.0 °F 67% 29.55 in 10.0 mi SSW 17.3 mph - N/A   Clear
2:35 AM 42.4 °F 35.0 °F 31.8 °F 66% 29.54 in 10.0 mi SSW 15.0 mph 21.9 mph N/A   Clear
2:55 AM 42.6 °F 34.6 °F 31.6 °F 65% 29.53 in 10.0 mi SSW 17.3 mph 23.0 mph N/A   Scattered Clouds
3:15 AM 41.9 °F 34.3 °F 31.6 °F 67% 29.52 in 10.0 mi SSW 15.0 mph - N/A   Mostly Cloudy
3:35 AM 41.5 °F 33.8 °F 31.5 °F 67% 29.52 in 10.0 mi SW 15.0 mph - N/A   Scattered Clouds
3:55 AM 42.4 °F 35.0 °F 30.7 °F 63% 29.51 in 10.0 mi SW 15.0 mph 20.7 mph N/A   Clear
4:15 AM 41.5 °F 35.4 °F 30.6 °F 65% 29.51 in 10.0 mi SW 10.4 mph - N/A   Clear
4:35 AM 41.5 °F 35.0 °F 30.2 °F 64% 29.50 in 10.0 mi SW 11.5 mph - N/A   Scattered Clouds
4:55 AM 41.9 °F 34.3 °F 29.8 °F 62% 29.50 in 10.0 mi WSW 15.0 mph - N/A   Scattered Clouds
5:15 AM 41.5 °F 34.6 °F 29.8 °F 63% 29.50 in 10.0 mi WSW 12.7 mph 17.3 mph N/A   Scattered Clouds
5:35 AM 40.6 °F 34.3 °F 30.0 °F 66% 29.50 in 10.0 mi WSW 10.4 mph - N/A   Scattered Clouds
5:55 AM 39.7 °F 33.2 °F 30.2 °F 69% 29.50 in 10.0 mi WSW 10.4 mph - N/A   Mostly Cloudy
6:15 AM 39.4 °F 32.3 °F 30.6 °F 71% 29.49 in 10.0 mi WSW 11.5 mph - N/A   Mostly Cloudy
6:35 AM 38.5 °F 32.7 °F 30.7 °F 74% 29.50 in 10.0 mi West 8.1 mph - N/A   Scattered Clouds
6:55 AM 38.1 °F 32.9 °F 30.9 °F 75% 29.51 in 10.0 mi West 6.9 mph - N/A   Scattered Clouds
7:15 AM 37.4 °F 32.1 °F 30.9 °F 77% 29.51 in 10.0 mi WSW 6.9 mph - N/A   Clear
7:35 AM 37.0 °F 31.0 °F 31.1 °F 79% 29.52 in 10.0 mi WSW 8.1 mph - N/A   Clear
7:55 AM 37.6 °F 31.6 °F 31.8 °F 80% 29.52 in 10.0 mi West 8.1 mph - N/A   Scattered Clouds
8:15 AM 38.3 °F 31.9 °F 32.0 °F 78% 29.52 in 10.0 mi West 9.2 mph - N/A   Scattered Clouds
8:35 AM 38.3 °F 31.9 °F 32.0 °F 78% 29.53 in 10.0 mi West 9.2 mph - N/A   Overcast
8:55 AM 37.8 °F 31.8 °F 32.0 °F 80% 29.54 in 10.0 mi West 8.1 mph - N/A   Mostly Cloudy
9:15 AM 38.3 °F 31.4 °F 32.0 °F 78% 29.54 in 10.0 mi WNW 10.4 mph - N/A   Mostly Cloudy
9:35 AM 38.7 °F 32.9 °F 32.0 °F 77% 29.54 in 10.0 mi WNW 8.1 mph - N/A   Mostly Cloudy
9:55 AM 38.3 °F 31.4 °F 32.0 °F 78% 29.54 in 10.0 mi West 10.4 mph - N/A   Overcast
10:15 AM 38.8 °F 31.2 °F 31.5 °F 75% 29.54 in 10.0 mi West 12.7 mph - N/A   Scattered Clouds
10:35 AM 39.6 °F 31.7 °F 31.1 °F 72% 29.55 in 10.0 mi WNW 13.8 mph - N/A   Clear
10:55 AM 39.7 °F 31.5 °F 31.1 °F 71% 29.55 in 10.0 mi West 15.0 mph 19.6 mph N/A   Clear
11:15 AM 39.9 °F 31.4 °F 30.9 °F 70% 29.56 in 10.0 mi West 16.1 mph 25.3 mph N/A   Clear
11:35 AM 40.1 °F 31.6 °F 30.7 °F 69% 29.56 in 10.0 mi West 16.1 mph 23.0 mph N/A   Clear
11:55 AM 40.1 °F 30.5 °F 30.9 °F 70% 29.58 in 10.0 mi WNW 20.7 mph 26.5 mph N/A   Scattered Clouds
12:15 PM 38.8 °F 27.8 °F 30.6 °F 72% 29.59 in 10.0 mi WNW 25.3 mph 32.2 mph N/A   Mostly Cloudy
12:35 PM 37.9 °F 27.9 °F 30.6 °F 75% 29.60 in 10.0 mi WNW 19.6 mph 32.2 mph N/A   Mostly Cloudy
12:55 PM 37.0 °F 27.0 °F 30.4 °F 77% 29.62 in 10.0 mi WNW 18.4 mph 25.3 mph N/A   Overcast
1:15 PM 37.0 °F 27.7 °F 30.7 °F 78% 29.63 in 10.0 mi WNW 16.1 mph 31.1 mph N/A   Overcast
1:35 PM 36.9 °F 26.5 °F 31.1 °F 80% 29.63 in 10.0 mi WNW 19.6 mph 25.3 mph N/A   Overcast
1:55 PM 37.0 °F 27.0 °F 31.1 °F 79% 29.64 in 10.0 mi WNW 18.4 mph 26.5 mph N/A   Overcast
2:15 PM 37.2 °F 28.7 °F 31.1 °F 79% 29.65 in 10.0 mi WNW 13.8 mph 19.6 mph N/A   Overcast
2:35 PM 37.4 °F 28.9 °F 31.5 °F 79% 29.65 in 10.0 mi WNW 13.8 mph 19.6 mph N/A   Overcast
2:55 PM 37.8 °F 29.0 °F 32.0 °F 80% 29.65 in 10.0 mi West 15.0 mph 20.7 mph N/A   Overcast
3:15 PM 38.3 °F 29.3 °F 31.5 °F 76% 29.66 in 10.0 mi West 16.1 mph 19.6 mph N/A   Overcast
3:35 PM 38.7 °F 30.9 °F 31.6 °F 76% 29.66 in 10.0 mi WNW 12.7 mph - N/A   Overcast
3:55 PM 39.2 °F 30.8 °F 31.5 °F 74% 29.67 in 10.0 mi WNW 15.0 mph - N/A   Overcast
4:15 PM 38.8 °F 30.4 °F 31.8 °F 76% 29.68 in 10.0 mi WNW 15.0 mph 23.0 mph N/A   Overcast
4:35 PM 38.7 °F 30.1 °F 31.8 °F 76% 29.69 in 10.0 mi West 15.0 mph 18.4 mph N/A   Overcast
4:55 PM 39.0 °F 29.3 °F 32.0 °F 76% 29.70 in 10.0 mi West 19.6 mph 26.5 mph N/A   Overcast
5:15 PM 39.2 °F 30.2 °F 32.0 °F 75% 29.70 in 10.0 mi West 17.3 mph 24.2 mph N/A   Overcast
5:35 PM 38.7 °F 30.5 °F 31.5 °F 75% 29.70 in 10.0 mi West 13.8 mph 23.0 mph N/A   Mostly Cloudy
5:55 PM 38.3 °F 28.4 °F 31.1 °F 75% 29.71 in 10.0 mi West 19.6 mph 25.3 mph N/A   Mostly Cloudy
6:15 PM 37.8 °F 30.7 °F 31.3 °F 77% 29.72 in 10.0 mi West 10.4 mph - N/A   Overcast
6:35 PM 37.9 °F 29.2 °F 30.4 °F 74% 29.73 in 10.0 mi West 15.0 mph 21.9 mph N/A   Overcast
6:55 PM 37.8 °F 29.0 °F 30.6 °F 75% 29.73 in 10.0 mi West 15.0 mph - N/A   Overcast
7:15 PM 37.4 °F 28.2 °F 30.4 °F 76% 29.74 in 10.0 mi West 16.1 mph 19.6 mph N/A   Overcast
7:35 PM 37.4 °F 28.9 °F 30.2 °F 75% 29.75 in 10.0 mi West 13.8 mph 23.0 mph N/A   Overcast
7:55 PM 37.4 °F 27.8 °F 29.8 °F 74% 29.76 in 10.0 mi West 17.3 mph - N/A   Mostly Cloudy
8:15 PM 36.5 °F 27.8 °F 29.7 °F 76% 29.77 in 10.0 mi West 13.8 mph - N/A   Mostly Cloudy
8:35 PM 36.3 °F 27.5 °F 28.9 °F 75% 29.78 in 10.0 mi West 13.8 mph 18.4 mph N/A   Scattered Clouds
8:55 PM 36.0 °F 26.3 °F 28.0 °F 73% 29.79 in 10.0 mi WNW 16.1 mph 24.2 mph N/A   Scattered Clouds
9:15 PM 35.4 °F 26.4 °F 27.7 °F 73% 29.80 in 10.0 mi WNW 13.8 mph 23.0 mph N/A   Scattered Clouds
9:35 PM 34.3 °F 25.0 °F 27.5 °F 76% 29.81 in 10.0 mi WNW 13.8 mph 18.4 mph N/A   Scattered Clouds
9:54 PM 34.2 °F 24.4 °F 26.6 °F 74% 29.82 in 10.0 mi WNW 15.0 mph 26.5 mph N/A   Clear
10:15 PM 33.3 °F 23.7 °F 26.6 °F 77% 29.83 in 10.0 mi WNW 13.8 mph 17.3 mph N/A   Clear
10:35 PM 33.1 °F 23.0 °F 25.5 °F 74% 29.84 in 10.0 mi NW 15.0 mph 23.0 mph N/A   Clear
10:55 PM 32.4 °F 21.3 °F 25.2 °F 75% 29.85 in 10.0 mi WNW 17.3 mph 20.7 mph N/A   Clear
11:15 PM 32.0 °F 21.6 °F 24.8 °F 75% 29.85 in 10.0 mi WNW 15.0 mph 21.9 mph N/A   Clear
11:35 PM 32.0 °F 20.8 °F 24.1 °F 73% 29.85 in 10.0 mi WNW 17.3 mph 23.0 mph N/A   Clear
11:55 PM 31.5 °F 23.5 °F 23.9 °F 74% 29.86 in 10.0 mi WNW 9.2 mph - N/A   Clear